Terminal Aerodrome Forecast
Issued by NWS

Home | Current Version | Previous Version | Text Only | Print | Product List | Glossary On
Versions: 1 2 3 4 5 6 7 8 9 10 11 12 13 14 15 16 17 18 19 20 21 22 23 24 25 26
000
FTUS43 KDVN 050315 AAC
TAFBRL
TAF AMD
KBRL 050315Z 0503/0524 26008KT P6SM OVC009
     FM050700 24004KT 4SM BR OVC005
      TEMPO 0508/0512 2SM BR OVC004
     FM051600 18005KT 4SM BR SCT012
     FM051900 18010KT 6SM HZ OVC200=

USA.gov is the U.S. government's official web portal to all federal, state and local government web resources and services.